Saint Helens, OR

3:41 AM PST on January 26, 2015 (GMT -0800)
Arbor Hill, Sykes Rd. | Change Station
CLOSE
Current Station
Personal Weather Station
Location: St. Helens, OR
Elevation: 200 ft
Nearby Weather Stations

Elev 200 ft 45.85 °N, 122.85 °W | Updated 52 seconds ago

Fog
Fog
39.6 °F
Feels Like 40 °F
N
0.0
Wind Variable Wind from NW
Gusts 0.0 mph

Today
High -- | Low -- °F
--% Chance of Precip.
Yesterday
High -- | Low -- °F
Precip. -- in
7:40 AM 5:08 PM
Waxing Crescent, 42% visible
Pressure 30.00 in
Visibility 0.2 miles
Clouds
Windchill 40 °F
Dew Point 38 °F
Humidity 94%
Rainfall 0.00 in
Snow Depth Not available.
UV Not available.
Pollen 2.70 out of 12
Air Quality Not available.
Flu Activity Not available.
SPECI KSPB 261116Z AUTO 00000KT 1/4SM FG VV001 03/03 A3000 RMK AO2 T00330033

More Conditions Fewer Conditions

Pressure 30.00 in
Visibility 0.2 miles
Clouds
Windchill 40 °F
Dew Point 38 °F
Humidity 94%
Rainfall 0.00 in
Snow Depth Not available.
UV Not available.
Pollen 2.70 out of 12
Air Quality Not available.
Flu Activity Not available.
SPECI KSPB 261116Z AUTO 00000KT 1/4SM FG VV001 03/03 A3000 RMK AO2 T00330033

More Conditions Fewer Conditions

10-Day Weather Forecast

Almanac

Astronomy

Jan. 26, 2015 Rise Set
Actual Time
Civil Twilight
Nautical Twilight
Astronomical Twilight
Moon
Length of Visible Light
Length of Day
Tomorrow will be .
, % of the Moon is Illuminated

Today's Extremes

State Highs State Lows

Community

WunderPhotos

Upload Photos

1,790,172 photos uploaded!

WunderBlogs® & News

Nearby

Air Quality

  Air Quality AQ Index Pollutant
Not available.

Snow Depth

Station Depth Elevation

Earthquake Activity

City Distance Mag. Time & Date
Minimum magnitude displayed is 2.5.

Coastal Water Temperatures

Place Temperature

Nearby Weather Stations